sensor_id;sensor_type;location;lat;lon;timestamp;pressure;altitude;pressure_sealevel;temperature;humidity
80124;BME280;69433;48.642;9.142;2023-06-14T00:01:43;96515.78;;;23.08;30.82
80124;BME280;69433;48.642;9.142;2023-06-14T00:04:10;96515.72;;;23.12;30.83
80124;BME280;69433;48.642;9.142;2023-06-14T00:06:35;96521.13;;;23.08;30.75
80124;BME280;69433;48.642;9.142;2023-06-14T00:09:02;96523.00;;;23.11;30.57
80124;BME280;69433;48.642;9.142;2023-06-14T00:11:27;96522.25;;;23.11;30.64
80124;BME280;69433;48.642;9.142;2023-06-14T00:13:53;96517.56;;;23.15;30.84
80124;BME280;69433;48.642;9.142;2023-06-14T00:16:18;96518.16;;;23.06;30.74
80124;BME280;69433;48.642;9.142;2023-06-14T00:18:45;96515.94;;;23.01;30.99
80124;BME280;69433;48.642;9.142;2023-06-14T00:21:11;96520.25;;;23.15;30.88
80124;BME280;69433;48.642;9.142;2023-06-14T00:23:37;96515.81;;;23.24;31.01
80124;BME280;69433;48.642;9.142;2023-06-14T00:26:03;96514.53;;;23.29;30.61
80124;BME280;69433;48.642;9.142;2023-06-14T00:28:28;96513.38;;;23.30;30.70
80124;BME280;69433;48.642;9.142;2023-06-14T00:30:53;96516.97;;;23.23;31.02
80124;BME280;69433;48.642;9.142;2023-06-14T00:33:18;96515.81;;;23.24;30.59
80124;BME280;69433;48.642;9.142;2023-06-14T00:35:46;96510.94;;;23.19;30.66
80124;BME280;69433;48.642;9.142;2023-06-14T00:38:12;96500.97;;;23.20;30.77
80124;BME280;69433;48.642;9.142;2023-06-14T00:40:37;96503.97;;;23.22;30.67
80124;BME280;69433;48.642;9.142;2023-06-14T00:43:10;96502.31;;;23.28;30.48
80124;BME280;69433;48.642;9.142;2023-06-14T00:45:35;96506.09;;;23.14;30.57
80124;BME280;69433;48.642;9.142;2023-06-14T00:48:01;96507.91;;;23.17;30.65
80124;BME280;69433;48.642;9.142;2023-06-14T00:50:28;96505.81;;;23.09;30.58
80124;BME280;69433;48.642;9.142;2023-06-14T00:52:54;96505.66;;;23.16;30.72
80124;BME280;69433;48.642;9.142;2023-06-14T00:55:20;96506.75;;;23.18;30.62
80124;BME280;69433;48.642;9.142;2023-06-14T00:57:45;96504.31;;;23.24;30.61
80124;BME280;69433;48.642;9.142;2023-06-14T01:00:11;96510.19;;;23.19;30.24
80124;BME280;69433;48.642;9.142;2023-06-14T01:02:38;96504.81;;;23.19;30.57
80124;BME280;69433;48.642;9.142;2023-06-14T01:05:05;96502.13;;;23.19;30.36
80124;BME280;69433;48.642;9.142;2023-06-14T01:10:31;96499.88;;;23.17;30.77
80124;BME280;69433;48.642;9.142;2023-06-14T01:15:45;96508.75;;;23.14;30.15
80124;BME280;69433;48.642;9.142;2023-06-14T01:18:11;96505.81;;;23.09;30.62
80124;BME280;69433;48.642;9.142;2023-06-14T01:20:50;96509.34;;;23.06;30.66
80124;BME280;69433;48.642;9.142;2023-06-14T01:23:17;96512.75;;;22.90;30.87
80124;BME280;69433;48.642;9.142;2023-06-14T01:25:44;96507.91;;;23.01;30.72
80124;BME280;69433;48.642;9.142;2023-06-14T01:28:11;96502.81;;;23.07;30.64
80124;BME280;69433;48.642;9.142;2023-06-14T01:30:39;96510.84;;;23.07;30.64
80124;BME280;69433;48.642;9.142;2023-06-14T01:33:07;96507.84;;;23.05;30.57
80124;BME280;69433;48.642;9.142;2023-06-14T01:35:33;96510.50;;;23.05;30.62
80124;BME280;69433;48.642;9.142;2023-06-14T01:38:06;96513.53;;;23.07;30.84
80124;BME280;69433;48.642;9.142;2023-06-14T01:40:33;96508.59;;;23.05;30.48
80124;BME280;69433;48.642;9.142;2023-06-14T01:42:59;96505.81;;;23.09;30.72
80124;BME280;69433;48.642;9.142;2023-06-14T01:45:36;96504.16;;;23.15;30.43
80124;BME280;69433;48.642;9.142;2023-06-14T01:48:02;96505.97;;;23.18;30.66
80124;BME280;69433;48.642;9.142;2023-06-14T01:50:31;96509.41;;;23.18;30.65
80124;BME280;69433;48.642;9.142;2023-06-14T01:52:57;96508.34;;;23.16;30.36
80124;BME280;69433;48.642;9.142;2023-06-14T01:55:22;96500.38;;;23.12;30.52
80124;BME280;69433;48.642;9.142;2023-06-14T01:57:49;96499.63;;;23.12;30.45
80124;BME280;69433;48.642;9.142;2023-06-14T02:00:16;96506.84;;;23.15;30.33
80124;BME280;69433;48.642;9.142;2023-06-14T02:02:43;96504.56;;;23.13;30.47
80124;BME280;69433;48.642;9.142;2023-06-14T02:05:09;96511.03;;;23.16;30.33
80124;BME280;69433;48.642;9.142;2023-06-14T02:07:35;96507.91;;;23.17;30.22
80124;BME280;69433;48.642;9.142;2023-06-14T02:10:03;96506.50;;;23.13;30.27
80124;BME280;69433;48.642;9.142;2023-06-14T02:12:29;96509.19;;;23.13;30.29
80124;BME280;69433;48.642;9.142;2023-06-14T02:14:54;96510.69;;;23.14;30.42
80124;BME280;69433;48.642;9.142;2023-06-14T02:17:21;96510.69;;;23.14;30.39
80124;BME280;69433;48.642;9.142;2023-06-14T02:19:47;96510.84;;;23.07;30.42
80124;BME280;69433;48.642;9.142;2023-06-14T02:22:13;96513.03;;;23.12;30.34
80124;BME280;69433;48.642;9.142;2023-06-14T02:24:40;96509.09;;;23.16;30.37
80124;BME280;69433;48.642;9.142;2023-06-14T02:27:05;96508.25;;;23.19;30.14
80124;BME280;69433;48.642;9.142;2023-06-14T02:29:31;96504.81;;;23.19;30.36
80124;BME280;69433;48.642;9.142;2023-06-14T02:31:56;96508.34;;;23.16;30.44
80124;BME280;69433;48.642;9.142;2023-06-14T02:34:22;96513.38;;;23.14;30.10
80124;BME280;69433;48.642;9.142;2023-06-14T02:36:47;96513.03;;;23.12;30.12
80124;BME280;69433;48.642;9.142;2023-06-14T02:39:13;96509.19;;;23.13;30.23
80124;BME280;69433;48.642;9.142;2023-06-14T02:41:38;96508.84;;;23.11;30.27
80124;BME280;69433;48.642;9.142;2023-06-14T02:44:04;96506.84;;;23.15;30.42
80124;BME280;69433;48.642;9.142;2023-06-14T02:46:30;96508.91;;;23.07;30.34
80124;BME280;69433;48.642;9.142;2023-06-14T02:48:55;96512.69;;;23.10;30.48
80124;BME280;69433;48.642;9.142;2023-06-14T02:51:20;96512.03;;;23.06;30.19
80124;BME280;69433;48.642;9.142;2023-06-14T02:53:45;96497.59;;;23.00;30.25
80124;BME280;69433;48.642;9.142;2023-06-14T02:56:11;96507.56;;;22.99;30.39
80124;BME280;69433;48.642;9.142;2023-06-14T02:58:37;96511.84;;;22.97;30.52
80124;BME280;69433;48.642;9.142;2023-06-14T03:01:04;96499.69;;;23.08;30.56
80124;BME280;69433;48.642;9.142;2023-06-14T03:03:30;96497.13;;;23.21;30.44
80124;BME280;69433;48.642;9.142;2023-06-14T03:05:56;96504.50;;;23.33;30.31
80124;BME280;69433;48.642;9.142;2023-06-14T03:08:21;96493.59;;;23.40;30.34
80124;BME280;69433;48.642;9.142;2023-06-14T03:10:51;96503.81;;;23.45;30.05
80124;BME280;69433;48.642;9.142;2023-06-14T03:13:16;96497.22;;;23.50;30.05
80124;BME280;69433;48.642;9.142;2023-06-14T03:15:42;96507.88;;;23.53;30.06
80124;BME280;69433;48.642;9.142;2023-06-14T03:18:08;96503.16;;;23.57;30.19
80124;BME280;69433;48.642;9.142;2023-06-14T03:20:46;96513.06;;;23.60;30.25
80124;BME280;69433;48.642;9.142;2023-06-14T03:23:12;96509.97;;;23.62;30.33
80124;BME280;69433;48.642;9.142;2023-06-14T03:25:37;96508.78;;;23.63;30.08
80124;BME280;69433;48.642;9.142;2023-06-14T03:28:04;96510.31;;;23.64;30.37
80124;BME280;69433;48.642;9.142;2023-06-14T03:30:35;96519.75;;;23.68;30.27
80124;BME280;69433;48.642;9.142;2023-06-14T03:33:01;96522.78;;;23.71;30.36
80124;BME280;69433;48.642;9.142;2023-06-14T03:35:27;96517.75;;;23.73;30.19
80124;BME280;69433;48.642;9.142;2023-06-14T03:37:53;96523.00;;;23.76;30.19
80124;BME280;69433;48.642;9.142;2023-06-14T03:40:18;96520.25;;;23.80;30.03
80124;BME280;69433;48.642;9.142;2023-06-14T03:42:45;96522.50;;;23.81;29.92
80124;BME280;69433;48.642;9.142;2023-06-14T03:45:10;96528.63;;;23.82;30.44
80124;BME280;69433;48.642;9.142;2023-06-14T03:47:36;96526.25;;;23.84;30.02
80124;BME280;69433;48.642;9.142;2023-06-14T03:50:04;96542.38;;;23.84;29.91
80124;BME280;69433;48.642;9.142;2023-06-14T03:52:30;96530.16;;;23.83;30.23
80124;BME280;69433;48.642;9.142;2023-06-14T03:54:56;96528.53;;;23.85;30.22
80124;BME280;69433;48.642;9.142;2023-06-14T03:57:22;96538.50;;;23.85;30.25
80124;BME280;69433;48.642;9.142;2023-06-14T03:59:49;96535.41;;;23.86;30.08
80124;BME280;69433;48.642;9.142;2023-06-14T04:02:15;96539.59;;;23.87;30.40
80124;BME280;69433;48.642;9.142;2023-06-14T04:04:41;96543.03;;;23.88;30.36
80124;BME280;69433;48.642;9.142;2023-06-14T04:07:10;96540.38;;;23.88;30.20
80124;BME280;69433;48.642;9.142;2023-06-14T04:09:39;96541.53;;;23.87;30.08
80124;BME280;69433;48.642;9.142;2023-06-14T04:12:08;96547.66;;;23.87;30.33
80124;BME280;69433;48.642;9.142;2023-06-14T04:14:40;96548.09;;;23.86;30.25
80124;BME280;69433;48.642;9.142;2023-06-14T04:17:05;96550.44;;;23.84;30.33
80124;BME280;69433;48.642;9.142;2023-06-14T04:19:31;96563.00;;;23.87;30.45
80124;BME280;69433;48.642;9.142;2023-06-14T04:21:58;96563.00;;;23.87;30.42
80124;BME280;69433;48.642;9.142;2023-06-14T04:24:27;96565.63;;;23.90;30.54
80124;BME280;69433;48.642;9.142;2023-06-14T04:26:57;96576.03;;;23.88;30.54
80124;BME280;69433;48.642;9.142;2023-06-14T04:29:24;96575.44;;;23.81;30.12
80124;BME280;69433;48.642;9.142;2023-06-14T04:31:53;96577.09;;;23.75;30.32
80124;BME280;69433;48.642;9.142;2023-06-14T04:34:18;96572.03;;;23.64;30.54
80124;BME280;69433;48.642;9.142;2023-06-14T04:36:44;96566.38;;;23.58;30.56
80124;BME280;69433;48.642;9.142;2023-06-14T04:39:20;96572.34;;;23.50;30.24
80124;BME280;69433;48.642;9.142;2023-06-14T04:41:46;96567.03;;;23.46;30.27
80124;BME280;69433;48.642;9.142;2023-06-14T04:44:12;96574.75;;;23.44;30.25
80124;BME280;69433;48.642;9.142;2023-06-14T04:46:38;96574.06;;;23.40;30.29
80124;BME280;69433;48.642;9.142;2023-06-14T04:49:11;96581.13;;;23.34;30.27
80124;BME280;69433;48.642;9.142;2023-06-14T04:51:40;96578.09;;;23.32;30.31
80124;BME280;69433;48.642;9.142;2023-06-14T04:54:06;96582.00;;;23.27;30.26
80124;BME280;69433;48.642;9.142;2023-06-14T04:56:37;96585.13;;;23.26;30.39
80124;BME280;69433;48.642;9.142;2023-06-14T04:59:03;96588.22;;;23.24;30.52
80124;BME280;69433;48.642;9.142;2023-06-14T05:01:30;96590.97;;;23.21;30.38
80124;BME280;69433;48.642;9.142;2023-06-14T05:03:57;96594.81;;;23.20;30.41
80124;BME280;69433;48.642;9.142;2023-06-14T05:06:23;96601.28;;;23.22;30.36
80124;BME280;69433;48.642;9.142;2023-06-14T05:08:48;96601.63;;;23.24;30.31
80124;BME280;69433;48.642;9.142;2023-06-14T05:11:13;96600.47;;;23.25;30.39
80124;BME280;69433;48.642;9.142;2023-06-14T05:13:39;96603.22;;;23.22;30.13
80124;BME280;69433;48.642;9.142;2023-06-14T05:16:06;96604.72;;;23.23;30.36
80124;BME280;69433;48.642;9.142;2023-06-14T05:18:31;96599.03;;;23.21;30.15
80124;BME280;69433;48.642;9.142;2023-06-14T05:20:59;96608.06;;;23.27;30.05
80124;BME280;69433;48.642;9.142;2023-06-14T05:23:24;96612.28;;;23.28;30.20
80124;BME280;69433;48.642;9.142;2023-06-14T05:25:49;96598.19;;;23.24;30.15
80124;BME280;69433;48.642;9.142;2023-06-14T05:28:15;96604.97;;;23.28;29.98
80124;BME280;69433;48.642;9.142;2023-06-14T05:30:41;96614.13;;;23.31;30.10
80124;BME280;69433;48.642;9.142;2023-06-14T05:33:06;96617.56;;;23.31;30.15
80124;BME280;69433;48.642;9.142;2023-06-14T05:35:32;96605.66;;;23.33;30.10
80124;BME280;69433;48.642;9.142;2023-06-14T05:37:57;96609.53;;;23.31;30.07
80124;BME280;69433;48.642;9.142;2023-06-14T05:40:22;96614.06;;;23.35;30.17
80124;BME280;69433;48.642;9.142;2023-06-14T05:42:47;96610.94;;;23.36;30.00
80124;BME280;69433;48.642;9.142;2023-06-14T05:45:13;96612.44;;;23.37;30.09
80124;BME280;69433;48.642;9.142;2023-06-14T05:47:40;96611.78;;;23.33;30.13
80124;BME280;69433;48.642;9.142;2023-06-14T05:50:06;96604.09;;;23.35;30.25
80124;BME280;69433;48.642;9.142;2023-06-14T05:52:34;96613.97;;;23.38;30.36
80124;BME280;69433;48.642;9.142;2023-06-14T05:55:00;96610.09;;;23.39;30.25
80124;BME280;69433;48.642;9.142;2023-06-14T05:57:26;96615.81;;;23.41;30.36
80124;BME280;69433;48.642;9.142;2023-06-14T05:59:51;96610.38;;;23.45;30.39
80124;BME280;69433;48.642;9.142;2023-06-14T06:02:17;96611.47;;;23.47;30.32
80124;BME280;69433;48.642;9.142;2023-06-14T06:04:42;96612.59;;;23.50;30.15
80124;BME280;69433;48.642;9.142;2023-06-14T06:07:07;96613.69;;;23.52;30.27
80124;BME280;69433;48.642;9.142;2023-06-14T06:09:33;96618.28;;;23.52;30.11
80124;BME280;69433;48.642;9.142;2023-06-14T06:11:58;96628.19;;;23.55;30.15
80124;BME280;69433;48.642;9.142;2023-06-14T06:14:23;96623.56;;;23.55;29.82
80124;BME280;69433;48.642;9.142;2023-06-14T06:16:50;96618.97;;;23.56;29.70
80124;BME280;69433;48.642;9.142;2023-06-14T06:19:17;96618.88;;;23.59;30.11
80124;BME280;69433;48.642;9.142;2023-06-14T06:21:43;96616.53;;;23.61;29.73
80124;BME280;69433;48.642;9.142;2023-06-14T06:24:08;96628.44;;;23.60;29.94
80124;BME280;69433;48.642;9.142;2023-06-14T06:26:33;96624.50;;;23.65;29.69
80124;BME280;69433;48.642;9.142;2023-06-14T06:28:58;96618.72;;;23.66;29.64
80124;BME280;69433;48.642;9.142;2023-06-14T06:31:31;96620.91;;;23.72;29.71
80124;BME280;69433;48.642;9.142;2023-06-14T06:33:56;96621.56;;;23.76;29.91
80124;BME280;69433;48.642;9.142;2023-06-14T06:36:22;96616.97;;;23.76;30.00
80124;BME280;69433;48.642;9.142;2023-06-14T06:38:53;96620.31;;;23.80;29.75
80124;BME280;69433;48.642;9.142;2023-06-14T06:41:18;96627.84;;;23.85;29.56
80124;BME280;69433;48.642;9.142;2023-06-14T06:43:44;96629.28;;;23.90;29.86
80124;BME280;69433;48.642;9.142;2023-06-14T06:46:10;96638.09;;;23.90;29.93
80124;BME280;69433;48.642;9.142;2023-06-14T06:48:35;96636.53;;;23.93;29.59
80124;BME280;69433;48.642;9.142;2023-06-14T06:51:01;96640.53;;;24.01;29.71
80124;BME280;69433;48.642;9.142;2023-06-14T06:53:26;96644.47;;;24.13;29.82
80124;BME280;69433;48.642;9.142;2023-06-14T06:55:51;96643.91;;;24.21;29.58
80124;BME280;69433;48.642;9.142;2023-06-14T06:58:16;96647.94;;;24.29;29.77
80124;BME280;69433;48.642;9.142;2023-06-14T07:00:45;96647.75;;;24.36;29.46
80124;BME280;69433;48.642;9.142;2023-06-14T07:03:11;96654.09;;;24.42;29.57
80124;BME280;69433;48.642;9.142;2023-06-14T07:05:36;96655.13;;;24.49;29.73
80124;BME280;69433;48.642;9.142;2023-06-14T07:08:02;96652.66;;;24.54;29.87
80124;BME280;69433;48.642;9.142;2023-06-14T07:10:31;96649.88;;;24.58;29.54
80124;BME280;69433;48.642;9.142;2023-06-14T07:12:57;96655.16;;;24.61;29.75
80124;BME280;69433;48.642;9.142;2023-06-14T07:15:22;96655.47;;;24.63;29.86
80124;BME280;69433;48.642;9.142;2023-06-14T07:17:47;96660.78;;;24.67;29.55
80124;BME280;69433;48.642;9.142;2023-06-14T07:20:13;96665.94;;;24.74;29.54
80124;BME280;69433;48.642;9.142;2023-06-14T07:22:42;96670.38;;;24.81;30.17
80124;BME280;69433;48.642;9.142;2023-06-14T07:25:11;96662.56;;;24.86;30.21
80124;BME280;69433;48.642;9.142;2023-06-14T07:27:42;96663.97;;;24.91;30.11
80124;BME280;69433;48.642;9.142;2023-06-14T07:30:08;96666.59;;;24.94;30.32
80124;BME280;69433;48.642;9.142;2023-06-14T07:32:33;96664.56;;;24.98;30.29
80124;BME280;69433;48.642;9.142;2023-06-14T07:34:59;96667.13;;;25.02;30.18
80124;BME280;69433;48.642;9.142;2023-06-14T07:37:24;96672.00;;;25.07;30.10
80124;BME280;69433;48.642;9.142;2023-06-14T07:39:49;96677.28;;;25.10;30.01
80124;BME280;69433;48.642;9.142;2023-06-14T07:42:15;96681.81;;;25.13;30.36
80124;BME280;69433;48.642;9.142;2023-06-14T07:44:40;96683.22;;;25.18;30.31
80124;BME280;69433;48.642;9.142;2023-06-14T07:47:05;96689.25;;;25.22;30.41
80124;BME280;69433;48.642;9.142;2023-06-14T07:49:36;96687.66;;;25.25;30.32
80124;BME280;69433;48.642;9.142;2023-06-14T07:52:02;96686.47;;;25.26;29.90
80124;BME280;69433;48.642;9.142;2023-06-14T07:54:28;96694.41;;;25.29;29.95
80124;BME280;69433;48.642;9.142;2023-06-14T07:56:54;96691.63;;;25.33;30.33
80124;BME280;69433;48.642;9.142;2023-06-14T07:59:21;96691.84;;;25.38;30.15
80124;BME280;69433;48.642;9.142;2023-06-14T08:01:46;96686.47;;;25.38;30.12
80124;BME280;69433;48.642;9.142;2023-06-14T08:04:13;96690.25;;;25.41;29.94
80124;BME280;69433;48.642;9.142;2023-06-14T08:06:39;96697.81;;;25.46;30.08
80124;BME280;69433;48.642;9.142;2023-06-14T08:09:04;96696.63;;;25.47;30.08
80124;BME280;69433;48.642;9.142;2023-06-14T08:11:33;96698.44;;;25.50;30.25
80124;BME280;69433;48.642;9.142;2023-06-14T08:13:59;96689.19;;;25.51;29.87
80124;BME280;69433;48.642;9.142;2023-06-14T08:16:24;96684.56;;;25.51;30.34
80124;BME280;69433;48.642;9.142;2023-06-14T08:18:49;96689.09;;;25.55;30.36
80124;BME280;69433;48.642;9.142;2023-06-14T08:21:15;96694.81;;;25.57;30.37
80124;BME280;69433;48.642;9.142;2023-06-14T08:23:41;96690.47;;;25.59;30.21
80124;BME280;69433;48.642;9.142;2023-06-14T08:26:09;96695.78;;;25.63;30.04
80124;BME280;69433;48.642;9.142;2023-06-14T08:28:34;96699.25;;;25.63;30.13
80124;BME280;69433;48.642;9.142;2023-06-14T08:30:59;96696.13;;;25.65;30.12
80124;BME280;69433;48.642;9.142;2023-06-14T08:33:25;96697.19;;;25.67;30.27
80124;BME280;69433;48.642;9.142;2023-06-14T08:35:50;96702.91;;;25.69;30.20
80124;BME280;69433;48.642;9.142;2023-06-14T08:38:15;96701.72;;;25.70;30.34
80124;BME280;69433;48.642;9.142;2023-06-14T08:40:41;96699.34;;;25.72;30.06
80124;BME280;69433;48.642;9.142;2023-06-14T08:43:07;96701.63;;;25.74;30.08
80124;BME280;69433;48.642;9.142;2023-06-14T08:45:32;96701.94;;;25.76;30.38
80124;BME280;69433;48.642;9.142;2023-06-14T08:47:58;96699.97;;;25.76;30.12
80124;BME280;69433;48.642;9.142;2023-06-14T08:50:25;96703.75;;;25.79;30.08
80124;BME280;69433;48.642;9.142;2023-06-14T08:52:56;96706.03;;;25.80;29.88
80124;BME280;69433;48.642;9.142;2023-06-14T08:55:23;96703.66;;;25.82;29.99
80124;BME280;69433;48.642;9.142;2023-06-14T08:57:53;96709.38;;;25.84;30.13
80124;BME280;69433;48.642;9.142;2023-06-14T09:00:26;96698.91;;;25.86;30.10
80124;BME280;69433;48.642;9.142;2023-06-14T09:02:53;96711.19;;;25.87;30.01
80124;BME280;69433;48.642;9.142;2023-06-14T09:05:24;96712.69;;;25.88;29.90
80124;BME280;69433;48.642;9.142;2023-06-14T09:07:50;96701.50;;;25.90;30.03
80124;BME280;69433;48.642;9.142;2023-06-14T09:10:16;96697.63;;;25.91;30.08
80124;BME280;69433;48.642;9.142;2023-06-14T09:12:41;96702.59;;;25.93;29.91
80124;BME280;69433;48.642;9.142;2023-06-14T09:15:07;96702.16;;;25.94;30.01
80124;BME280;69433;48.642;9.142;2023-06-14T09:17:38;96703.22;;;25.97;29.99
80124;BME280;69433;48.642;9.142;2023-06-14T09:20:15;96710.09;;;25.98;30.01
80124;BME280;69433;48.642;9.142;2023-06-14T09:22:44;96708.16;;;25.98;30.27
80124;BME280;69433;48.642;9.142;2023-06-14T09:25:10;96706.97;;;25.99;30.15
80124;BME280;69433;48.642;9.142;2023-06-14T09:27:37;96702.34;;;26.00;30.38
80124;BME280;69433;48.642;9.142;2023-06-14T09:30:13;96706.13;;;26.02;30.40
80124;BME280;69433;48.642;9.142;2023-06-14T09:32:41;96708.06;;;26.02;30.39
80124;BME280;69433;48.642;9.142;2023-06-14T09:35:07;96716.47;;;26.04;30.32
80124;BME280;69433;48.642;9.142;2023-06-14T09:37:33;96711.38;;;26.06;30.00
80124;BME280;69433;48.642;9.142;2023-06-14T09:39:59;96707.50;;;26.07;30.33
80124;BME280;69433;48.642;9.142;2023-06-14T09:42:25;96711.72;;;26.08;30.30
80124;BME280;69433;48.642;9.142;2023-06-14T09:44:54;96703.97;;;26.10;30.02
80124;BME280;69433;48.642;9.142;2023-06-14T09:47:30;96698.16;;;26.11;30.02
80124;BME280;69433;48.642;9.142;2023-06-14T09:49:56;96712.38;;;26.12;29.98
80124;BME280;69433;48.642;9.142;2023-06-14T09:52:22;96715.81;;;26.12;30.24
80124;BME280;69433;48.642;9.142;2023-06-14T09:54:49;96712.69;;;26.14;30.56
80124;BME280;69433;48.642;9.142;2023-06-14T09:57:25;96709.53;;;26.15;30.82
80124;BME280;69433;48.642;9.142;2023-06-14T09:59:59;96712.13;;;26.19;30.41
80124;BME280;69433;48.642;9.142;2023-06-14T10:02:36;96706.31;;;26.20;30.45
80124;BME280;69433;48.642;9.142;2023-06-14T10:05:04;96706.31;;;26.20;30.58
80124;BME280;69433;48.642;9.142;2023-06-14T10:10:16;96712.78;;;26.23;30.59
80124;BME280;69433;48.642;9.142;2023-06-14T10:12:41;96711.56;;;26.24;30.77
80124;BME280;69433;48.642;9.142;2023-06-14T10:15:20;96707.28;;;26.27;30.95
80124;BME280;69433;48.642;9.142;2023-06-14T10:17:50;96708.06;;;26.27;31.22
80124;BME280;69433;48.642;9.142;2023-06-14T10:20:28;96706.44;;;26.30;30.87
80124;BME280;69433;48.642;9.142;2023-06-14T10:23:02;96706.00;;;26.31;31.13
80124;BME280;69433;48.642;9.142;2023-06-14T10:25:29;96701.38;;;26.32;31.11
80124;BME280;69433;48.642;9.142;2023-06-14T10:28:18;96699.09;;;26.30;31.11
80124;BME280;69433;48.642;9.142;2023-06-14T10:31:07;96699.44;;;26.32;31.04
80124;BME280;69433;48.642;9.142;2023-06-14T10:33:35;96703.63;;;26.33;30.74
80124;BME280;69433;48.642;9.142;2023-06-14T10:38:38;96698.00;;;26.40;30.96
80124;BME280;69433;48.642;9.142;2023-06-14T10:41:05;96701.78;;;26.43;30.82
80124;BME280;69433;48.642;9.142;2023-06-14T10:43:31;96698.94;;;26.46;30.94
80124;BME280;69433;48.642;9.142;2023-06-14T10:46:16;96706.94;;;26.50;30.84
80124;BME280;69433;48.642;9.142;2023-06-14T10:48:45;96707.69;;;26.50;30.83
80124;BME280;69433;48.642;9.142;2023-06-14T10:51:20;96701.41;;;26.53;31.24
80124;BME280;69433;48.642;9.142;2023-06-14T10:53:50;96694.41;;;26.56;31.08
80124;BME280;69433;48.642;9.142;2023-06-14T10:56:32;96691.25;;;26.57;30.63
80124;BME280;69433;48.642;9.142;2023-06-14T10:58:58;96698.28;;;26.55;30.85
80124;BME280;69433;48.642;9.142;2023-06-14T11:01:32;96695.16;;;26.56;30.66
80124;BME280;69433;48.642;9.142;2023-06-14T11:04:07;96696.66;;;26.57;30.46
80124;BME280;69433;48.642;9.142;2023-06-14T11:07:10;96690.50;;;26.57;30.40
80124;BME280;69433;48.642;9.142;2023-06-14T11:12:47;96694.28;;;26.59;30.37
80124;BME280;69433;48.642;9.142;2023-06-14T11:15:13;96691.59;;;26.59;30.14
80124;BME280;69433;48.642;9.142;2023-06-14T11:18:04;96693.41;;;26.63;30.25
80124;BME280;69433;48.642;9.142;2023-06-14T11:20:31;96688.75;;;26.63;30.16
80124;BME280;69433;48.642;9.142;2023-06-14T11:22:57;96685.63;;;26.65;30.12
80124;BME280;69433;48.642;9.142;2023-06-14T11:25:23;96688.75;;;26.63;29.97
80124;BME280;69433;48.642;9.142;2023-06-14T11:27:49;96693.41;;;26.63;29.95
80124;BME280;69433;48.642;9.142;2023-06-14T11:30:15;96697.91;;;26.66;29.89
80124;BME280;69433;48.642;9.142;2023-06-14T11:32:46;96692.09;;;26.67;29.61
80124;BME280;69433;48.642;9.142;2023-06-14T11:35:11;96695.53;;;26.68;29.77
80124;BME280;69433;48.642;9.142;2023-06-14T11:37:36;96684.00;;;26.67;29.75
80124;BME280;69433;48.642;9.142;2023-06-14T11:40:04;96687.47;;;26.68;29.68
80124;BME280;69433;48.642;9.142;2023-06-14T11:42:33;96690.16;;;26.68;29.56
80124;BME280;69433;48.642;9.142;2023-06-14T11:44:59;96687.47;;;26.68;29.69
80124;BME280;69433;48.642;9.142;2023-06-14T11:47:34;96686.28;;;26.69;29.50
80124;BME280;69433;48.642;9.142;2023-06-14T11:50:00;96685.63;;;26.65;29.77
80124;BME280;69433;48.642;9.142;2023-06-14T11:52:26;96680.22;;;26.65;29.99
80124;BME280;69433;48.642;9.142;2023-06-14T11:54:52;96680.56;;;26.67;29.90
80124;BME280;69433;48.642;9.142;2023-06-14T11:57:19;96690.47;;;26.70;29.72
80124;BME280;69433;48.642;9.142;2023-06-14T11:59:44;96684.31;;;26.69;29.55
80124;BME280;69433;48.642;9.142;2023-06-14T12:02:25;96686.88;;;26.73;29.45
80124;BME280;69433;48.642;9.142;2023-06-14T12:04:54;96689.16;;;26.74;29.63
80124;BME280;69433;48.642;9.142;2023-06-14T12:07:21;96686.03;;;26.76;29.53
80124;BME280;69433;48.642;9.142;2023-06-14T12:12:22;96679.88;;;26.75;29.68
80124;BME280;69433;48.642;9.142;2023-06-14T12:14:51;96679.13;;;26.75;29.99
80124;BME280;69433;48.642;9.142;2023-06-14T12:17:17;96677.94;;;26.76;29.74
80124;BME280;69433;48.642;9.142;2023-06-14T12:19:43;96676.09;;;26.73;29.56
80124;BME280;69433;48.642;9.142;2023-06-14T12:22:10;96680.88;;;26.69;29.70
80124;BME280;69433;48.642;9.142;2023-06-14T12:24:36;96677.38;;;26.46;29.10
80124;BME280;69433;48.642;9.142;2023-06-14T12:27:01;96683.97;;;26.45;29.59
80124;BME280;69433;48.642;9.142;2023-06-14T12:29:30;96676.97;;;26.48;30.11
80124;BME280;69433;48.642;9.142;2023-06-14T12:31:56;96683.09;;;26.48;30.97
80124;BME280;69433;48.642;9.142;2023-06-14T12:34:25;96673.19;;;26.45;30.89
80124;BME280;69433;48.642;9.142;2023-06-14T12:36:55;96677.06;;;26.44;31.62
80124;BME280;69433;48.642;9.142;2023-06-14T12:39:21;96676.78;;;26.42;30.65
80124;BME280;69433;48.642;9.142;2023-06-14T12:41:48;96669.53;;;26.39;31.71
80124;BME280;69433;48.642;9.142;2023-06-14T12:44:14;96667.72;;;26.36;31.54
80124;BME280;69433;48.642;9.142;2023-06-14T12:46:41;96672.78;;;26.34;32.60
80124;BME280;69433;48.642;9.142;2023-06-14T12:49:10;96659.00;;;26.32;32.87
80124;BME280;69433;48.642;9.142;2023-06-14T12:51:36;96671.72;;;26.32;31.88
80124;BME280;69433;48.642;9.142;2023-06-14T12:54:04;96677.56;;;26.30;32.63
80124;BME280;69433;48.642;9.142;2023-06-14T12:56:30;96672.16;;;26.30;31.29
80124;BME280;69433;48.642;9.142;2023-06-14T12:58:55;96677.66;;;26.27;32.24
80124;BME280;69433;48.642;9.142;2023-06-14T13:01:20;96672.25;;;26.27;31.86
80124;BME280;69433;48.642;9.142;2023-06-14T13:03:48;96673.41;;;26.25;31.13
80124;BME280;69433;48.642;9.142;2023-06-14T13:06:17;96682.25;;;26.26;31.56
80124;BME280;69433;48.642;9.142;2023-06-14T13:08:43;96676.88;;;26.26;31.18
80124;BME280;69433;48.642;9.142;2023-06-14T13:11:08;96681.44;;;26.29;31.50
80124;BME280;69433;48.642;9.142;2023-06-14T13:13:34;96684.13;;;26.29;31.58
80124;BME280;69433;48.642;9.142;2023-06-14T13:15:59;96673.66;;;26.31;31.62
80124;BME280;69433;48.642;9.142;2023-06-14T13:18:27;96682.19;;;26.30;31.68